Terminal Aerodrome Forecast
Issued by NWS

Home | Current Version | Previous Version | Graphics & Text | Print | Product List | Glossary On
Versions: 1 2 3 4 5 6 7 8 9 10 11 12 13 14 15 16 17 18 19 20 21 22 23 24 25 26 27 28 29 30
611
FTUS43 KGRB 222338
TAFCWA
TAF
KCWA 222338Z 2300/2324 09008KT P6SM -SN OVC050
     FM230200 10009KT 4SM -SN OVC040 WS020/13035KT
     FM230400 11010G15KT 4SM -SN OVC027 WS020/14040KT
     FM230600 13007KT 1 1/2SM -SN BR OVC007 WS020/18035KT
     FM231100 13005KT 1SM -FZDZSN BR OVC007 WS020/18035KT
     FM231400 26009G16KT P6SM OVC008
     FM232200 28009G15KT P6SM BKN010
      AMD LTD TO CLD VIS AND WIND 2304/2312=

USA.gov is the U.S. government's official web portal to all federal, state and local government web resources and services.